sensor_id;sensor_type;location;lat;lon;timestamp;temperature;humidity
13093;DHT22;6612;49.568;11.000;2022-08-11T02:17:52;20.40;36.80
13093;DHT22;6612;49.568;11.000;2022-08-11T02:20:25;20.30;35.50
13093;DHT22;6612;49.568;11.000;2022-08-11T02:23:19;20.30;36.70
13093;DHT22;6612;49.568;11.000;2022-08-11T02:26:08;20.30;37.30
13093;DHT22;6612;49.568;11.000;2022-08-11T02:28:47;20.30;37.00
13093;DHT22;6612;49.568;11.000;2022-08-11T02:31:22;20.20;37.50
13093;DHT22;6612;49.568;11.000;2022-08-11T02:34:16;20.20;37.40
13093;DHT22;6612;49.568;11.000;2022-08-11T02:36:54;20.20;37.60
13093;DHT22;6612;49.568;11.000;2022-08-11T02:39:23;20.10;37.80
13093;DHT22;6612;49.568;11.000;2022-08-11T02:42:04;20.10;37.50
13093;DHT22;6612;49.568;11.000;2022-08-11T02:45:08;20.10;37.80
13093;DHT22;6612;49.568;11.000;2022-08-11T02:47:43;20.00;38.20
13093;DHT22;6612;49.568;11.000;2022-08-11T02:50:39;20.00;38.00
13093;DHT22;6612;49.568;11.000;2022-08-11T02:53:12;20.00;38.30
13093;DHT22;6612;49.568;11.000;2022-08-11T02:55:52;19.90;38.20
13093;DHT22;6612;49.568;11.000;2022-08-11T02:58:31;19.90;38.60
13093;DHT22;6612;49.568;11.000;2022-08-11T03:01:07;19.90;38.70
13093;DHT22;6612;49.568;11.000;2022-08-11T03:03:48;19.90;38.70
13093;DHT22;6612;49.568;11.000;2022-08-11T03:06:27;19.80;38.80
13093;DHT22;6612;49.568;11.000;2022-08-11T03:09:02;19.80;38.90
13093;DHT22;6612;49.568;11.000;2022-08-11T03:11:49;19.80;37.80
13093;DHT22;6612;49.568;11.000;2022-08-11T03:14:48;19.80;39.40
13093;DHT22;6612;49.568;11.000;2022-08-11T03:17:40;19.80;38.80
13093;DHT22;6612;49.568;11.000;2022-08-11T03:20:26;19.70;38.00
13093;DHT22;6612;49.568;11.000;2022-08-11T03:23:02;19.70;39.40
13093;DHT22;6612;49.568;11.000;2022-08-11T03:25:41;19.70;39.30
13093;DHT22;6612;49.568;11.000;2022-08-11T03:28:20;19.60;39.20
13093;DHT22;6612;49.568;11.000;2022-08-11T03:30:53;19.60;39.30
13093;DHT22;6612;49.568;11.000;2022-08-11T03:33:24;19.60;39.40
13093;DHT22;6612;49.568;11.000;2022-08-11T03:36:20;19.50;39.30
13093;DHT22;6612;49.568;11.000;2022-08-11T03:39:06;19.50;39.70
13093;DHT22;6612;49.568;11.000;2022-08-11T03:41:37;19.50;40.10
13093;DHT22;6612;49.568;11.000;2022-08-11T03:44:27;19.50;39.40
13093;DHT22;6612;49.568;11.000;2022-08-11T03:50:07;19.50;40.30
13093;DHT22;6612;49.568;11.000;2022-08-11T03:52:50;19.40;39.80
13093;DHT22;6612;49.568;11.000;2022-08-11T03:55:29;19.40;40.10
13093;DHT22;6612;49.568;11.000;2022-08-11T04:01:29;19.40;40.60
13093;DHT22;6612;49.568;11.000;2022-08-11T04:07:27;19.30;40.60
13093;DHT22;6612;49.568;11.000;2022-08-11T04:10:35;19.30;40.60
13093;DHT22;6612;49.568;11.000;2022-08-11T04:13:28;19.30;40.60
13093;DHT22;6612;49.568;11.000;2022-08-11T04:16:09;19.30;40.70
13093;DHT22;6612;49.568;11.000;2022-08-11T04:22:21;19.30;41.20
13093;DHT22;6612;49.568;11.000;2022-08-11T04:25:03;19.30;41.40
13093;DHT22;6612;49.568;11.000;2022-08-11T04:30:50;19.30;41.40
13093;DHT22;6612;49.568;11.000;2022-08-11T04:33:39;19.30;41.50
13093;DHT22;6612;49.568;11.000;2022-08-11T04:36:19;19.30;41.50
13093;DHT22;6612;49.568;11.000;2022-08-11T04:39:15;19.30;41.20
13093;DHT22;6612;49.568;11.000;2022-08-11T04:42:06;19.40;41.60
13093;DHT22;6612;49.568;11.000;2022-08-11T04:51:53;19.70;42.70
13093;DHT22;6612;49.568;11.000;2022-08-11T04:54:52;19.90;42.70
13093;DHT22;6612;49.568;11.000;2022-08-11T04:57:49;20.10;42.80
13093;DHT22;6612;49.568;11.000;2022-08-11T05:00:55;20.30;42.90
13093;DHT22;6612;49.568;11.000;2022-08-11T05:07:39;20.90;42.60
13093;DHT22;6612;49.568;11.000;2022-08-11T05:10:21;21.50;41.70
13093;DHT22;6612;49.568;11.000;2022-08-11T05:12:54;21.50;42.50
13093;DHT22;6612;49.568;11.000;2022-08-11T05:15:32;21.70;42.30
13093;DHT22;6612;49.568;11.000;2022-08-11T05:18:23;21.90;42.20
13093;DHT22;6612;49.568;11.000;2022-08-11T05:21:11;22.20;41.70
13093;DHT22;6612;49.568;11.000;2022-08-11T05:24:04;22.40;41.90
13093;DHT22;6612;49.568;11.000;2022-08-11T05:26:52;23.10;41.10
13093;DHT22;6612;49.568;11.000;2022-08-11T05:29:43;23.10;41.70
13093;DHT22;6612;49.568;11.000;2022-08-11T05:32:34;23.50;41.80
13093;DHT22;6612;49.568;11.000;2022-08-11T05:35:25;24.10;41.60
13093;DHT22;6612;49.568;11.000;2022-08-11T05:37:54;24.70;41.40
13093;DHT22;6612;49.568;11.000;2022-08-11T05:40:47;25.20;41.00
13093;DHT22;6612;49.568;11.000;2022-08-11T05:43:32;26.00;40.10
13093;DHT22;6612;49.568;11.000;2022-08-11T05:46:18;26.60;40.40
13093;DHT22;6612;49.568;11.000;2022-08-11T05:49:07;27.30;39.70
13093;DHT22;6612;49.568;11.000;2022-08-11T05:51:54;28.00;38.20
13093;DHT22;6612;49.568;11.000;2022-08-11T05:54:40;28.70;38.10
13093;DHT22;6612;49.568;11.000;2022-08-11T05:57:29;29.40;37.50
13093;DHT22;6612;49.568;11.000;2022-08-11T06:00:02;30.00;36.50
13093;DHT22;6612;49.568;11.000;2022-08-11T06:02:40;30.60;35.60
13093;DHT22;6612;49.568;11.000;2022-08-11T06:05:08;31.20;34.30
13093;DHT22;6612;49.568;11.000;2022-08-11T06:07:37;31.70;33.90
13093;DHT22;6612;49.568;11.000;2022-08-11T06:10:05;32.20;32.50
13093;DHT22;6612;49.568;11.000;2022-08-11T06:12:34;32.60;31.80
13093;DHT22;6612;49.568;11.000;2022-08-11T06:15:04;33.00;31.10
13093;DHT22;6612;49.568;11.000;2022-08-11T06:17:33;33.30;30.20
13093;DHT22;6612;49.568;11.000;2022-08-11T06:20:03;33.70;29.90
13093;DHT22;6612;49.568;11.000;2022-08-11T06:22:31;34.00;29.40
13093;DHT22;6612;49.568;11.000;2022-08-11T06:25:02;34.30;29.00
13093;DHT22;6612;49.568;11.000;2022-08-11T06:27:30;34.60;28.40
13093;DHT22;6612;49.568;11.000;2022-08-11T06:30:00;34.90;28.00
13093;DHT22;6612;49.568;11.000;2022-08-11T06:32:31;35.20;27.50
13093;DHT22;6612;49.568;11.000;2022-08-11T06:35:06;35.30;26.90
13093;DHT22;6612;49.568;11.000;2022-08-11T06:37:44;35.60;26.50
13093;DHT22;6612;49.568;11.000;2022-08-11T06:40:24;36.00;26.40
13093;DHT22;6612;49.568;11.000;2022-08-11T06:42:55;36.00;26.10
13093;DHT22;6612;49.568;11.000;2022-08-11T06:45:30;36.30;26.40
13093;DHT22;6612;49.568;11.000;2022-08-11T06:47:59;36.60;25.70
13093;DHT22;6612;49.568;11.000;2022-08-11T06:50:28;36.90;25.90
13093;DHT22;6612;49.568;11.000;2022-08-11T06:53:16;36.90;24.90
13093;DHT22;6612;49.568;11.000;2022-08-11T06:55:46;37.10;24.30
13093;DHT22;6612;49.568;11.000;2022-08-11T06:58:32;37.10;24.60
13093;DHT22;6612;49.568;11.000;2022-08-11T07:01:28;37.20;24.20
13093;DHT22;6612;49.568;11.000;2022-08-11T07:04:04;37.30;23.40
13093;DHT22;6612;49.568;11.000;2022-08-11T07:06:47;37.40;23.40
13093;DHT22;6612;49.568;11.000;2022-08-11T07:10:02;37.40;23.40
13093;DHT22;6612;49.568;11.000;2022-08-11T07:12:53;37.40;23.20
13093;DHT22;6612;49.568;11.000;2022-08-11T07:15:56;37.10;22.50
13093;DHT22;6612;49.568;11.000;2022-08-11T07:18:25;36.70;22.50
13093;DHT22;6612;49.568;11.000;2022-08-11T07:21:14;36.20;22.30
13093;DHT22;6612;49.568;11.000;2022-08-11T07:24:10;35.60;22.30
13093;DHT22;6612;49.568;11.000;2022-08-11T07:26:56;34.90;22.60
13093;DHT22;6612;49.568;11.000;2022-08-11T07:29:45;34.30;23.00
13093;DHT22;6612;49.568;11.000;2022-08-11T07:32:18;33.70;23.40
13093;DHT22;6612;49.568;11.000;2022-08-11T07:34:51;33.30;23.70
13093;DHT22;6612;49.568;11.000;2022-08-11T07:37:22;32.90;24.00
13093;DHT22;6612;49.568;11.000;2022-08-11T07:39:50;32.60;24.30
13093;DHT22;6612;49.568;11.000;2022-08-11T07:42:25;32.30;24.50
13093;DHT22;6612;49.568;11.000;2022-08-11T07:44:55;32.00;24.70
13093;DHT22;6612;49.568;11.000;2022-08-11T07:47:40;31.80;24.90
13093;DHT22;6612;49.568;11.000;2022-08-11T07:50:26;31.40;24.80
13093;DHT22;6612;49.568;11.000;2022-08-11T07:53:12;31.30;25.30
13093;DHT22;6612;49.568;11.000;2022-08-11T07:55:41;31.10;25.50
13093;DHT22;6612;49.568;11.000;2022-08-11T07:58:09;31.00;25.80
13093;DHT22;6612;49.568;11.000;2022-08-11T08:01:00;30.80;25.80
13093;DHT22;6612;49.568;11.000;2022-08-11T08:03:47;30.80;26.00
13093;DHT22;6612;49.568;11.000;2022-08-11T08:06:33;30.70;26.00
13093;DHT22;6612;49.568;11.000;2022-08-11T08:09:20;30.60;26.00
13093;DHT22;6612;49.568;11.000;2022-08-11T08:12:07;30.50;26.00
13093;DHT22;6612;49.568;11.000;2022-08-11T08:14:53;30.40;26.10
13093;DHT22;6612;49.568;11.000;2022-08-11T08:17:40;30.30;26.10
13093;DHT22;6612;49.568;11.000;2022-08-11T08:20:19;30.30;25.80
13093;DHT22;6612;49.568;11.000;2022-08-11T08:22:48;30.30;26.20
13093;DHT22;6612;49.568;11.000;2022-08-11T08:25:23;30.20;26.10
13093;DHT22;6612;49.568;11.000;2022-08-11T08:27:50;30.20;25.80
13093;DHT22;6612;49.568;11.000;2022-08-11T08:30:18;30.20;25.10
13093;DHT22;6612;49.568;11.000;2022-08-11T08:33:04;30.20;25.60
13093;DHT22;6612;49.568;11.000;2022-08-11T08:35:33;30.20;25.40
13093;DHT22;6612;49.568;11.000;2022-08-11T08:38:01;30.10;26.10
13093;DHT22;6612;49.568;11.000;2022-08-11T08:40:29;30.20;24.90
13093;DHT22;6612;49.568;11.000;2022-08-11T08:43:02;30.10;25.60
13093;DHT22;6612;49.568;11.000;2022-08-11T08:45:33;30.10;25.30
13093;DHT22;6612;49.568;11.000;2022-08-11T08:48:03;30.10;25.50
13093;DHT22;6612;49.568;11.000;2022-08-11T08:50:35;30.10;25.50
13093;DHT22;6612;49.568;11.000;2022-08-11T08:53:21;30.10;25.10
13093;DHT22;6612;49.568;11.000;2022-08-11T08:55:49;30.10;25.10
13093;DHT22;6612;49.568;11.000;2022-08-11T08:58:21;30.10;24.90
13093;DHT22;6612;49.568;11.000;2022-08-11T09:00:50;30.00;25.50
13093;DHT22;6612;49.568;11.000;2022-08-11T09:03:19;30.00;25.20
13093;DHT22;6612;49.568;11.000;2022-08-11T09:05:48;30.00;25.20
13093;DHT22;6612;49.568;11.000;2022-08-11T09:08:17;30.00;25.20
13093;DHT22;6612;49.568;11.000;2022-08-11T09:10:46;30.00;25.20
13093;DHT22;6612;49.568;11.000;2022-08-11T09:13:35;30.10;25.20
13093;DHT22;6612;49.568;11.000;2022-08-11T09:16:04;30.10;24.90
13093;DHT22;6612;49.568;11.000;2022-08-11T09:18:32;30.10;25.00
13093;DHT22;6612;49.568;11.000;2022-08-11T09:21:01;30.10;25.00
13093;DHT22;6612;49.568;11.000;2022-08-11T09:23:28;30.20;24.90
13093;DHT22;6612;49.568;11.000;2022-08-11T09:26:14;30.20;25.10
13093;DHT22;6612;49.568;11.000;2022-08-11T09:28:59;30.30;25.00
13093;DHT22;6612;49.568;11.000;2022-08-11T09:31:29;30.30;25.00
13093;DHT22;6612;49.568;11.000;2022-08-11T09:33:58;30.30;25.10
13093;DHT22;6612;49.568;11.000;2022-08-11T09:36:27;30.40;25.90
13093;DHT22;6612;49.568;11.000;2022-08-11T09:39:13;30.50;25.40
13093;DHT22;6612;49.568;11.000;2022-08-11T09:41:59;30.60;25.50
13093;DHT22;6612;49.568;11.000;2022-08-11T09:44:27;30.70;25.70
13093;DHT22;6612;49.568;11.000;2022-08-11T09:47:21;31.00;25.90
13093;DHT22;6612;49.568;11.000;2022-08-11T09:49:49;31.30;25.80
13093;DHT22;6612;49.568;11.000;2022-08-11T09:52:19;31.70;25.90
13093;DHT22;6612;49.568;11.000;2022-08-11T09:54:48;32.10;25.50
13093;DHT22;6612;49.568;11.000;2022-08-11T09:57:18;32.30;24.90
13093;DHT22;6612;49.568;11.000;2022-08-11T10:00:05;32.50;24.30
13093;DHT22;6612;49.568;11.000;2022-08-11T10:02:33;32.50;23.70
13093;DHT22;6612;49.568;11.000;2022-08-11T10:05:02;32.50;23.50
13093;DHT22;6612;49.568;11.000;2022-08-11T10:07:46;32.40;23.10
13093;DHT22;6612;49.568;11.000;2022-08-11T10:10:18;32.20;23.00
13093;DHT22;6612;49.568;11.000;2022-08-11T10:12:50;32.10;23.20
13093;DHT22;6612;49.568;11.000;2022-08-11T10:15:18;32.00;23.20
13093;DHT22;6612;49.568;11.000;2022-08-11T10:18:04;31.90;23.40
13093;DHT22;6612;49.568;11.000;2022-08-11T10:20:50;31.80;23.50
13093;DHT22;6612;49.568;11.000;2022-08-11T10:23:20;31.70;23.60
13093;DHT22;6612;49.568;11.000;2022-08-11T10:26:08;31.70;23.40
13093;DHT22;6612;49.568;11.000;2022-08-11T10:28:52;31.70;23.50
13093;DHT22;6612;49.568;11.000;2022-08-11T10:31:20;31.70;23.70
13093;DHT22;6612;49.568;11.000;2022-08-11T10:34:06;31.70;23.80
13093;DHT22;6612;49.568;11.000;2022-08-11T10:36:36;31.70;23.80
13093;DHT22;6612;49.568;11.000;2022-08-11T10:39:13;31.70;23.80
13093;DHT22;6612;49.568;11.000;2022-08-11T10:41:43;31.80;24.00
13093;DHT22;6612;49.568;11.000;2022-08-11T10:44:29;31.90;23.70
13093;DHT22;6612;49.568;11.000;2022-08-11T10:46:59;32.00;23.70
13093;DHT22;6612;49.568;11.000;2022-08-11T10:49:43;32.00;23.60
13093;DHT22;6612;49.568;11.000;2022-08-11T10:52:30;32.10;23.40
13093;DHT22;6612;49.568;11.000;2022-08-11T10:55:17;32.10;23.30
13093;DHT22;6612;49.568;11.000;2022-08-11T10:58:01;32.00;23.20
13093;DHT22;6612;49.568;11.000;2022-08-11T11:00:46;31.90;22.90
13093;DHT22;6612;49.568;11.000;2022-08-11T11:03:15;31.80;22.70
13093;DHT22;6612;49.568;11.000;2022-08-11T11:05:44;31.70;22.60
13093;DHT22;6612;49.568;11.000;2022-08-11T11:08:14;31.70;22.60
13093;DHT22;6612;49.568;11.000;2022-08-11T11:10:56;31.60;22.80
13093;DHT22;6612;49.568;11.000;2022-08-11T11:13:24;31.60;22.60
13093;DHT22;6612;49.568;11.000;2022-08-11T11:16:09;31.60;22.50
13093;DHT22;6612;49.568;11.000;2022-08-11T11:19:06;31.50;22.00
13093;DHT22;6612;49.568;11.000;2022-08-11T11:21:34;31.50;21.90
13093;DHT22;6612;49.568;11.000;2022-08-11T11:24:08;31.40;22.00
13093;DHT22;6612;49.568;11.000;2022-08-11T11:26:49;31.30;22.20
13093;DHT22;6612;49.568;11.000;2022-08-11T11:29:46;31.30;22.40
13093;DHT22;6612;49.568;11.000;2022-08-11T11:32:24;31.20;22.30
13093;DHT22;6612;49.568;11.000;2022-08-11T11:35:20;31.20;22.40
13093;DHT22;6612;49.568;11.000;2022-08-11T11:37:51;31.20;22.50
13093;DHT22;6612;49.568;11.000;2022-08-11T11:40:20;31.20;22.20
13093;DHT22;6612;49.568;11.000;2022-08-11T11:42:51;31.20;22.50
13093;DHT22;6612;49.568;11.000;2022-08-11T11:45:21;31.20;22.40
13093;DHT22;6612;49.568;11.000;2022-08-11T11:47:52;31.20;22.60
13093;DHT22;6612;49.568;11.000;2022-08-11T11:50:24;31.20;22.30
13093;DHT22;6612;49.568;11.000;2022-08-11T11:52:52;31.10;22.50
13093;DHT22;6612;49.568;11.000;2022-08-11T11:55:21;31.10;22.50
13093;DHT22;6612;49.568;11.000;2022-08-11T11:57:51;31.20;22.50
13093;DHT22;6612;49.568;11.000;2022-08-11T12:00:36;31.20;22.40
13093;DHT22;6612;49.568;11.000;2022-08-11T12:03:23;31.20;22.20
13093;DHT22;6612;49.568;11.000;2022-08-11T12:05:51;31.20;22.10
13093;DHT22;6612;49.568;11.000;2022-08-11T12:08:20;31.20;22.20
13093;DHT22;6612;49.568;11.000;2022-08-11T12:10:50;31.20;22.00
13093;DHT22;6612;49.568;11.000;2022-08-11T12:13:41;31.20;21.90
13093;DHT22;6612;49.568;11.000;2022-08-11T12:16:09;31.20;21.90
13093;DHT22;6612;49.568;11.000;2022-08-11T12:18:37;31.20;22.10
13093;DHT22;6612;49.568;11.000;2022-08-11T12:21:07;31.20;22.10
13093;DHT22;6612;49.568;11.000;2022-08-11T12:23:36;31.20;21.90
13093;DHT22;6612;49.568;11.000;2022-08-11T12:26:21;31.20;21.90
13093;DHT22;6612;49.568;11.000;2022-08-11T12:29:10;31.20;22.10
13093;DHT22;6612;49.568;11.000;2022-08-11T12:31:38;31.20;22.00
13093;DHT22;6612;49.568;11.000;2022-08-11T12:34:07;31.20;22.00
13093;DHT22;6612;49.568;11.000;2022-08-11T12:36:36;31.30;21.90
13093;DHT22;6612;49.568;11.000;2022-08-11T12:39:06;31.30;21.60
13093;DHT22;6612;49.568;11.000;2022-08-11T12:41:36;31.30;21.70
13093;DHT22;6612;49.568;11.000;2022-08-11T12:44:24;31.30;21.60
13093;DHT22;6612;49.568;11.000;2022-08-11T12:47:11;31.30;21.60
13093;DHT22;6612;49.568;11.000;2022-08-11T12:49:43;31.30;21.70
13093;DHT22;6612;49.568;11.000;2022-08-11T12:52:33;31.30;21.80
13093;DHT22;6612;49.568;11.000;2022-08-11T12:55:05;31.30;21.80
13093;DHT22;6612;49.568;11.000;2022-08-11T12:57:36;31.30;21.80
13093;DHT22;6612;49.568;11.000;2022-08-11T13:00:24;31.30;21.60
13093;DHT22;6612;49.568;11.000;2022-08-11T13:03:11;31.30;21.90
13093;DHT22;6612;49.568;11.000;2022-08-11T13:05:58;31.30;21.90
13093;DHT22;6612;49.568;11.000;2022-08-11T13:08:28;31.30;21.90
13093;DHT22;6612;49.568;11.000;2022-08-11T13:10:58;31.30;21.80
13093;DHT22;6612;49.568;11.000;2022-08-11T13:13:46;31.40;21.80
13093;DHT22;6612;49.568;11.000;2022-08-11T13:16:15;31.30;21.80
13093;DHT22;6612;49.568;11.000;2022-08-11T13:18:43;31.30;21.80
13093;DHT22;6612;49.568;11.000;2022-08-11T13:21:11;31.30;21.90
13093;DHT22;6612;49.568;11.000;2022-08-11T13:23:39;31.30;21.90
13093;DHT22;6612;49.568;11.000;2022-08-11T13:26:06;31.30;21.90
13093;DHT22;6612;49.568;11.000;2022-08-11T13:28:34;31.40;21.80
13093;DHT22;6612;49.568;11.000;2022-08-11T13:31:02;31.40;21.80
13093;DHT22;6612;49.568;11.000;2022-08-11T13:33:42;31.40;22.10
13093;DHT22;6612;49.568;11.000;2022-08-11T13:36:11;31.40;21.90
13093;DHT22;6612;49.568;11.000;2022-08-11T13:38:41;31.50;21.90
13093;DHT22;6612;49.568;11.000;2022-08-11T13:41:09;31.50;21.60
13093;DHT22;6612;49.568;11.000;2022-08-11T13:43:50;31.60;21.60
13093;DHT22;6612;49.568;11.000;2022-08-11T13:46:19;31.60;21.60
13093;DHT22;6612;49.568;11.000;2022-08-11T13:48:50;31.70;21.60
13093;DHT22;6612;49.568;11.000;2022-08-11T13:51:18;31.70;21.60
13093;DHT22;6612;49.568;11.000;2022-08-11T13:54:03;31.70;21.70
13093;DHT22;6612;49.568;11.000;2022-08-11T13:56:35;31.80;21.30
13093;DHT22;6612;49.568;11.000;2022-08-11T13:59:05;31.80;21.40
13093;DHT22;6612;49.568;11.000;2022-08-11T14:01:37;31.80;20.80
13093;DHT22;6612;49.568;11.000;2022-08-11T14:04:08;31.80;21.10
13093;DHT22;6612;49.568;11.000;2022-08-11T14:06:39;31.80;21.80
13093;DHT22;6612;49.568;11.000;2022-08-11T14:09:08;31.80;21.30
13093;DHT22;6612;49.568;11.000;2022-08-11T14:11:37;31.80;21.30
13093;DHT22;6612;49.568;11.000;2022-08-11T14:14:26;31.80;21.20
13093;DHT22;6612;49.568;11.000;2022-08-11T14:17:00;31.80;21.20
13093;DHT22;6612;49.568;11.000;2022-08-11T14:19:32;31.80;21.10
13093;DHT22;6612;49.568;11.000;2022-08-11T14:22:04;31.80;20.90
13093;DHT22;6612;49.568;11.000;2022-08-11T14:24:35;31.80;20.70
13093;DHT22;6612;49.568;11.000;2022-08-11T14:27:03;31.80;20.70
13093;DHT22;6612;49.568;11.000;2022-08-11T14:29:32;31.80;20.80
13093;DHT22;6612;49.568;11.000;2022-08-11T14:32:05;31.80;20.90
13093;DHT22;6612;49.568;11.000;2022-08-11T14:34:42;31.80;20.90
13093;DHT22;6612;49.568;11.000;2022-08-11T14:37:11;31.80;20.90
13093;DHT22;6612;49.568;11.000;2022-08-11T14:39:42;31.80;20.90
13093;DHT22;6612;49.568;11.000;2022-08-11T14:42:12;31.90;20.80
13093;DHT22;6612;49.568;11.000;2022-08-11T14:44:59;31.90;20.70
13093;DHT22;6612;49.568;11.000;2022-08-11T14:47:43;31.90;20.60
13093;DHT22;6612;49.568;11.000;2022-08-11T14:50:15;31.90;20.50
13093;DHT22;6612;49.568;11.000;2022-08-11T14:52:48;31.90;20.50
13093;DHT22;6612;49.568;11.000;2022-08-11T14:55:16;31.90;20.50
13093;DHT22;6612;49.568;11.000;2022-08-11T14:58:02;31.90;20.60
13093;DHT22;6612;49.568;11.000;2022-08-11T15:00:31;31.90;20.20
13093;DHT22;6612;49.568;11.000;2022-08-11T15:02:59;31.80;20.50
13093;DHT22;6612;49.568;11.000;2022-08-11T15:05:38;31.80;20.60
13093;DHT22;6612;49.568;11.000;2022-08-11T15:08:06;31.80;20.40
13093;DHT22;6612;49.568;11.000;2022-08-11T15:10:34;31.80;20.70
13093;DHT22;6612;49.568;11.000;2022-08-11T15:13:01;31.80;20.70
13093;DHT22;6612;49.568;11.000;2022-08-11T15:15:29;31.80;20.70
13093;DHT22;6612;49.568;11.000;2022-08-11T15:18:14;31.80;20.50
13093;DHT22;6612;49.568;11.000;2022-08-11T15:20:44;31.80;20.40
13093;DHT22;6612;49.568;11.000;2022-08-11T15:23:29;31.80;20.40
13093;DHT22;6612;49.568;11.000;2022-08-11T15:26:15;31.80;20.40
13093;DHT22;6612;49.568;11.000;2022-08-11T15:28:47;31.80;20.30
13093;DHT22;6612;49.568;11.000;2022-08-11T15:31:32;31.80;20.40
13093;DHT22;6612;49.568;11.000;2022-08-11T15:34:20;31.80;20.70
13093;DHT22;6612;49.568;11.000;2022-08-11T15:37:10;31.80;20.80
13093;DHT22;6612;49.568;11.000;2022-08-11T15:40:00;31.80;20.80
13093;DHT22;6612;49.568;11.000;2022-08-11T15:42:49;31.80;20.90
13093;DHT22;6612;49.568;11.000;2022-08-11T15:45:37;31.80;21.40
13093;DHT22;6612;49.568;11.000;2022-08-11T15:48:21;31.70;20.90
13093;DHT22;6612;49.568;11.000;2022-08-11T15:50:53;31.70;21.00
13093;DHT22;6612;49.568;11.000;2022-08-11T15:53:27;31.70;21.10
13093;DHT22;6612;49.568;11.000;2022-08-11T15:55:57;31.60;21.10
13093;DHT22;6612;49.568;11.000;2022-08-11T15:58:30;31.60;21.20
13093;DHT22;6612;49.568;11.000;2022-08-11T16:01:19;31.60;21.30
13093;DHT22;6612;49.568;11.000;2022-08-11T16:04:07;31.60;21.30
13093;DHT22;6612;49.568;11.000;2022-08-11T16:06:48;31.50;21.30
13093;DHT22;6612;49.568;11.000;2022-08-11T16:09:23;31.50;21.40
13093;DHT22;6612;49.568;11.000;2022-08-11T16:11:53;31.50;21.30
13093;DHT22;6612;49.568;11.000;2022-08-11T16:14:22;31.50;21.40
13093;DHT22;6612;49.568;11.000;2022-08-11T16:17:10;31.50;21.40
13093;DHT22;6612;49.568;11.000;2022-08-11T16:19:40;31.50;21.40
13093;DHT22;6612;49.568;11.000;2022-08-11T16:22:11;31.40;21.40
13093;DHT22;6612;49.568;11.000;2022-08-11T16:24:41;31.40;21.50
13093;DHT22;6612;49.568;11.000;2022-08-11T16:27:11;31.40;21.60
13093;DHT22;6612;49.568;11.000;2022-08-11T16:29:42;31.40;21.60
13093;DHT22;6612;49.568;11.000;2022-08-11T16:32:12;31.30;21.60
13093;DHT22;6612;49.568;11.000;2022-08-11T16:34:44;31.30;21.60
13093;DHT22;6612;49.568;11.000;2022-08-11T16:37:30;31.30;21.70
13093;DHT22;6612;49.568;11.000;2022-08-11T16:40:18;31.30;21.30
13093;DHT22;6612;49.568;11.000;2022-08-11T16:42:48;31.30;21.80
13093;DHT22;6612;49.568;11.000;2022-08-11T16:45:33;31.30;21.80
13093;DHT22;6612;49.568;11.000;2022-08-11T16:48:20;31.20;21.70
13093;DHT22;6612;49.568;11.000;2022-08-11T16:50:48;31.20;21.60
13093;DHT22;6612;49.568;11.000;2022-08-11T16:53:15;31.20;21.60
13093;DHT22;6612;49.568;11.000;2022-08-11T16:55:45;31.20;21.70
13093;DHT22;6612;49.568;11.000;2022-08-11T16:58:13;31.10;21.70
13093;DHT22;6612;49.568;11.000;2022-08-11T17:00:59;31.20;21.70
13093;DHT22;6612;49.568;11.000;2022-08-11T17:03:29;31.10;21.70
13093;DHT22;6612;49.568;11.000;2022-08-11T17:06:16;31.10;21.70
13093;DHT22;6612;49.568;11.000;2022-08-11T17:09:02;31.10;21.70
13093;DHT22;6612;49.568;11.000;2022-08-11T17:11:51;31.00;21.50
13093;DHT22;6612;49.568;11.000;2022-08-11T17:14:40;31.00;21.50
13093;DHT22;6612;49.568;11.000;2022-08-11T17:17:12;31.00;21.60
13093;DHT22;6612;49.568;11.000;2022-08-11T17:19:45;31.00;21.60
13093;DHT22;6612;49.568;11.000;2022-08-11T17:22:13;30.90;21.60
13093;DHT22;6612;49.568;11.000;2022-08-11T17:24:58;30.90;21.60
13093;DHT22;6612;49.568;11.000;2022-08-11T17:27:27;30.90;21.50
13093;DHT22;6612;49.568;11.000;2022-08-11T17:29:57;30.90;21.60
13093;DHT22;6612;49.568;11.000;2022-08-11T17:32:29;30.90;21.60
13093;DHT22;6612;49.568;11.000;2022-08-11T17:35:17;30.80;21.60
13093;DHT22;6612;49.568;11.000;2022-08-11T17:38:00;30.80;21.60
13093;DHT22;6612;49.568;11.000;2022-08-11T17:40:29;30.80;21.20
13093;DHT22;6612;49.568;11.000;2022-08-11T17:42:59;30.70;21.60
13093;DHT22;6612;49.568;11.000;2022-08-11T17:45:45;30.70;21.60
13093;DHT22;6612;49.568;11.000;2022-08-11T17:48:32;30.60;21.50
13093;DHT22;6612;49.568;11.000;2022-08-11T17:51:03;30.60;21.60
13093;DHT22;6612;49.568;11.000;2022-08-11T17:53:34;30.60;21.60
13093;DHT22;6612;49.568;11.000;2022-08-11T17:56:20;30.50;21.60
13093;DHT22;6612;49.568;11.000;2022-08-11T17:59:08;30.50;21.60
13093;DHT22;6612;49.568;11.000;2022-08-11T18:01:54;30.40;21.50
13093;DHT22;6612;49.568;11.000;2022-08-11T18:04:43;30.40;21.50
13093;DHT22;6612;49.568;11.000;2022-08-11T18:07:10;30.30;21.50
13093;DHT22;6612;49.568;11.000;2022-08-11T18:09:54;30.30;21.60
13093;DHT22;6612;49.568;11.000;2022-08-11T18:12:40;30.20;21.60
13093;DHT22;6612;49.568;11.000;2022-08-11T18:15:27;30.20;21.70
13093;DHT22;6612;49.568;11.000;2022-08-11T18:18:12;30.10;21.70
13093;DHT22;6612;49.568;11.000;2022-08-11T18:20:57;30.00;21.80
13093;DHT22;6612;49.568;11.000;2022-08-11T18:23:42;30.00;21.90
13093;DHT22;6612;49.568;11.000;2022-08-11T18:26:27;29.90;21.90
13093;DHT22;6612;49.568;11.000;2022-08-11T18:29:12;29.80;22.00
13093;DHT22;6612;49.568;11.000;2022-08-11T18:32:00;29.80;22.10
13093;DHT22;6612;49.568;11.000;2022-08-11T18:34:46;29.70;22.20
13093;DHT22;6612;49.568;11.000;2022-08-11T18:37:34;29.60;22.30
13093;DHT22;6612;49.568;11.000;2022-08-11T18:40:25;29.40;22.00
13093;DHT22;6612;49.568;11.000;2022-08-11T18:43:11;29.40;22.70
13093;DHT22;6612;49.568;11.000;2022-08-11T18:46:01;29.30;22.70
13093;DHT22;6612;49.568;11.000;2022-08-11T18:48:52;29.20;22.90
13093;DHT22;6612;49.568;11.000;2022-08-11T18:51:39;29.20;23.70
13093;DHT22;6612;49.568;11.000;2022-08-11T18:54:25;29.10;23.20
13093;DHT22;6612;49.568;11.000;2022-08-11T18:57:10;29.00;23.20
13093;DHT22;6612;49.568;11.000;2022-08-11T18:59:58;28.90;23.30
13093;DHT22;6612;49.568;11.000;2022-08-11T19:02:43;28.80;23.40
13093;DHT22;6612;49.568;11.000;2022-08-11T19:05:32;28.70;23.50
13093;DHT22;6612;49.568;11.000;2022-08-11T19:08:18;28.60;23.70
13093;DHT22;6612;49.568;11.000;2022-08-11T19:11:04;28.60;23.80
13093;DHT22;6612;49.568;11.000;2022-08-11T19:13:51;28.50;23.90
13093;DHT22;6612;49.568;11.000;2022-08-11T19:16:37;28.40;24.00
13093;DHT22;6612;49.568;11.000;2022-08-11T19:19:22;28.30;24.10
13093;DHT22;6612;49.568;11.000;2022-08-11T19:22:09;28.20;24.20
13093;DHT22;6612;49.568;11.000;2022-08-11T19:24:55;28.10;24.40